createdAt,value
2018-04-07T00:01:54.114Z,8.17
2018-04-07T00:04:22.838Z,7.73
2018-04-07T00:06:52.361Z,9.83
2018-04-07T00:09:21.784Z,6.53
2018-04-07T00:11:50.508Z,7.37
2018-04-07T00:14:19.547Z,6.13
2018-04-07T00:16:48.118Z,7.07
2018-04-07T00:19:16.843Z,6.90
2018-04-07T00:21:45.598Z,9.60
2018-04-07T00:24:14.316Z,6.07
2018-04-07T00:26:42.942Z,6.87
2018-04-07T00:29:11.659Z,7.37
2018-04-07T00:31:40.281Z,6.83
2018-04-07T00:34:09.103Z,8.43
2018-04-07T00:36:37.824Z,6.30
2018-04-07T00:39:06.628Z,6.60
2018-04-07T00:41:35.370Z,7.63
2018-04-07T00:44:03.990Z,8.37
2018-04-07T00:46:32.633Z,6.83
2018-04-07T00:49:01.334Z,6.50
2018-04-07T00:51:29.969Z,6.30
2018-04-07T00:53:58.653Z,7.63
2018-04-07T00:56:27.301Z,7.57
2018-04-07T00:58:57.032Z,7.80
2018-04-07T01:01:25.648Z,8.73
2018-04-07T01:03:54.321Z,8.93
2018-04-07T01:06:22.991Z,8.07
2018-04-07T01:08:51.711Z,8.57
2018-04-07T01:11:20.323Z,8.10
2018-04-07T01:13:48.986Z,8.67
2018-04-07T01:16:17.679Z,8.33
2018-04-07T01:18:46.306Z,8.73
2018-04-07T01:21:14.948Z,9.73
2018-04-07T01:23:44.144Z,10.13
2018-04-07T01:26:12.774Z,9.13
2018-04-07T01:28:41.485Z,9.20
2018-04-07T01:31:10.209Z,9.03
2018-04-07T01:33:38.838Z,7.77
2018-04-07T01:36:07.553Z,8.03
2018-04-07T01:38:36.274Z,8.07
2018-04-07T01:41:04.912Z,9.17
2018-04-07T01:43:33.513Z,7.87
2018-04-07T01:46:02.240Z,10.63
2018-04-07T01:48:30.961Z,8.83
2018-04-07T01:50:59.682Z,11.60
2018-04-07T01:53:28.405Z,8.30
2018-04-07T01:55:57.125Z,9.23
2018-04-07T01:58:25.848Z,8.30
2018-04-07T02:00:54.428Z,8.00
2018-04-07T02:03:23.189Z,7.80
2018-04-07T02:05:51.832Z,8.90
2018-04-07T02:08:20.535Z,7.13
2018-04-07T02:10:49.256Z,8.20
2018-04-07T02:13:17.977Z,9.50
2018-04-07T02:15:46.631Z,10.47
2018-04-07T02:18:15.328Z,11.40
2018-04-07T02:20:44.042Z,9.47
2018-04-07T02:23:12.766Z,11.07
2018-04-07T02:25:41.489Z,11.53
2018-04-07T02:28:10.308Z,9.60
2018-04-07T02:30:38.946Z,11.83
2018-04-07T02:33:08.563Z,10.50
2018-04-07T02:35:37.191Z,10.00
2018-04-07T02:38:05.880Z,9.87
2018-04-07T02:40:34.415Z,12.33
2018-04-07T02:43:03.153Z,11.13
2018-04-07T02:45:31.869Z,11.97
2018-04-07T02:48:15.258Z,12.53
2018-04-07T02:50:43.959Z,10.87
2018-04-07T02:53:13.684Z,13.80
2018-04-07T02:55:42.316Z,11.13
2018-04-07T02:58:11.029Z,10.87
2018-04-07T03:00:39.616Z,11.23
2018-04-07T03:03:08.270Z,13.80
2018-04-07T03:05:36.993Z,11.50
2018-04-07T03:08:05.615Z,10.40
2018-04-07T03:10:34.235Z,9.60
2018-04-07T03:13:02.857Z,10.77
2018-04-07T03:15:31.582Z,12.07
2018-04-07T03:18:00.271Z,12.23
2018-04-07T03:20:29.025Z,10.33
2018-04-07T03:22:57.809Z,11.20
2018-04-07T03:25:26.570Z,10.83
2018-04-07T03:27:55.292Z,11.10
2018-04-07T03:30:24.382Z,11.63
2018-04-07T03:32:53.757Z,12.50
2018-04-07T03:35:22.457Z,11.53
2018-04-07T03:37:51.198Z,13.73
2018-04-07T03:40:19.832Z,10.87
2018-04-07T03:42:48.557Z,10.33
2018-04-07T03:45:17.162Z,11.20
2018-04-07T03:47:45.993Z,10.70
2018-04-07T03:50:14.610Z,9.83
2018-04-07T03:52:43.341Z,11.17
2018-04-07T03:55:11.954Z,10.07
2018-04-07T03:57:40.670Z,10.23
2018-04-07T04:00:09.311Z,13.13
2018-04-07T04:02:38.014Z,11.50
2018-04-07T04:05:06.736Z,9.77
2018-04-07T04:07:36.863Z,11.57
2018-04-07T04:10:05.485Z,10.27
2018-04-07T04:12:34.811Z,12.50
2018-04-07T04:15:03.429Z,11.10
2018-04-07T04:17:32.051Z,10.27
2018-04-07T04:20:00.649Z,10.57
2018-04-07T04:22:29.394Z,10.80
2018-04-07T04:24:58.116Z,11.50
2018-04-07T04:27:26.762Z,11.00
2018-04-07T04:29:55.460Z,10.17
2018-04-07T04:32:24.183Z,10.70
2018-04-07T04:34:52.905Z,10.93
2018-04-07T04:37:21.532Z,9.90
2018-04-07T04:39:51.753Z,9.47
2018-04-07T04:42:20.475Z,9.67
2018-04-07T04:44:49.109Z,10.87
2018-04-07T04:47:17.692Z,11.13
2018-04-07T04:49:46.438Z,9.80
2018-04-07T04:52:15.160Z,15.87
2018-04-07T04:54:43.789Z,10.67
2018-04-07T04:57:12.490Z,11.07
2018-04-07T04:59:41.147Z,10.27
2018-04-07T05:02:09.771Z,10.10
2018-04-07T05:04:38.672Z,12.00
2018-04-07T05:07:07.391Z,11.53
2018-04-07T05:09:36.013Z,9.50
2018-04-07T05:12:04.740Z,10.47
2018-04-07T05:14:33.363Z,10.00
2018-04-07T05:17:02.180Z,8.57
2018-04-07T05:19:30.899Z,11.07
2018-04-07T05:21:59.623Z,11.90
2018-04-07T05:24:28.262Z,9.90
2018-04-07T05:26:56.916Z,9.57
2018-04-07T05:29:25.511Z,10.23
2018-04-07T05:31:54.238Z,9.63
2018-04-07T05:34:22.931Z,10.73
2018-04-07T05:36:51.570Z,9.77
2018-04-07T05:39:20.375Z,8.83
2018-04-07T05:41:49.100Z,9.47
2018-04-07T05:44:18.223Z,8.50
2018-04-07T05:46:46.839Z,8.90
2018-04-07T05:49:15.563Z,11.23
2018-04-07T05:51:44.286Z,9.63
2018-04-07T05:54:13.167Z,10.10
2018-04-07T05:56:41.834Z,8.43
2018-04-07T05:59:10.454Z,10.07
2018-04-07T06:01:39.174Z,8.73
2018-04-07T06:04:07.897Z,7.23
2018-04-07T06:06:36.508Z,9.67
2018-04-07T06:09:06.054Z,9.00
2018-04-07T06:11:34.683Z,9.23
2018-04-07T06:14:03.298Z,19.73
2018-04-07T06:16:32.009Z,21.30
2018-04-07T06:19:00.827Z,18.47
2018-04-07T06:21:29.537Z,9.93
2018-04-07T06:23:58.172Z,11.33
2018-04-07T06:26:26.890Z,10.77
2018-04-07T06:28:55.614Z,9.70
2018-04-07T06:31:25.063Z,8.50
2018-04-07T06:33:53.743Z,16.80
2018-04-07T06:36:22.390Z,16.10
2018-04-07T06:38:51.104Z,15.77
2018-04-07T06:41:19.829Z,10.83
2018-04-07T06:43:48.551Z,10.10
2018-04-07T06:46:17.275Z,8.00
2018-04-07T06:48:45.829Z,8.93
2018-04-07T06:51:14.586Z,9.53
2018-04-07T06:53:43.235Z,12.00
2018-04-07T06:56:11.781Z,9.97
2018-04-07T06:58:40.376Z,9.63
2018-04-07T07:01:09.099Z,12.70
2018-04-07T07:03:37.821Z,9.57
2018-04-07T07:06:06.487Z,8.87
2018-04-07T07:08:35.183Z,10.83
2018-04-07T07:11:04.090Z,11.40
2018-04-07T07:13:32.716Z,9.53
2018-04-07T07:16:01.429Z,8.83
2018-04-07T07:18:30.173Z,8.63
2018-04-07T07:20:58.974Z,9.53
2018-04-07T07:23:27.698Z,9.47
2018-04-07T07:25:56.418Z,13.00
2018-04-07T07:28:25.037Z,11.80
2018-04-07T07:30:53.829Z,17.17
2018-04-07T07:33:22.583Z,16.47
2018-04-07T07:35:51.287Z,9.23
2018-04-07T07:38:20.730Z,14.57
2018-04-07T07:40:49.371Z,16.10
2018-04-07T07:43:18.072Z,13.17
2018-04-07T07:45:46.797Z,10.87
2018-04-07T07:48:17.232Z,10.80
2018-04-07T07:50:45.842Z,12.03
2018-04-07T07:53:14.465Z,12.70
2018-04-07T07:55:43.192Z,14.00
2018-04-07T07:58:11.911Z,11.63
2018-04-07T08:00:40.549Z,22.00
2018-04-07T08:03:09.151Z,16.30
2018-04-07T08:05:37.874Z,14.47
2018-04-07T08:08:06.507Z,10.87
2018-04-07T08:10:35.316Z,13.00
2018-04-07T08:13:04.037Z,10.93
2018-04-07T08:15:33.763Z,12.70
2018-04-07T08:18:02.486Z,9.93
2018-04-07T08:20:31.560Z,10.10
2018-04-07T08:23:04.130Z,10.53
2018-04-07T08:25:33.275Z,13.33
2018-04-07T08:28:01.901Z,9.37
2018-04-07T08:30:30.713Z,12.30
2018-04-07T08:33:00.136Z,14.03
2018-04-07T08:35:29.738Z,11.30
2018-04-07T08:37:58.392Z,12.67
2018-04-07T08:40:27.103Z,12.07
2018-04-07T08:42:55.724Z,10.10
2018-04-07T08:45:24.499Z,11.40
2018-04-07T08:47:53.252Z,10.70
2018-04-07T08:50:21.992Z,10.90
2018-04-07T08:52:50.531Z,10.23
2018-04-07T08:55:19.118Z,11.17
2018-04-07T08:57:47.774Z,11.87
2018-04-07T09:00:16.556Z,11.47
2018-04-07T09:02:45.249Z,11.50
2018-04-07T09:05:15.132Z,12.33
2018-04-07T09:07:43.847Z,17.73
2018-04-07T09:10:12.570Z,12.23
2018-04-07T09:12:41.129Z,12.97
2018-04-07T09:15:09.919Z,9.93
2018-04-07T09:17:38.703Z,10.77
2018-04-07T09:20:07.355Z,9.43
2018-04-07T09:22:35.985Z,17.67
2018-04-07T09:25:04.607Z,24.10
2018-04-07T09:27:33.156Z,12.83
2018-04-07T09:30:01.810Z,10.27
2018-04-07T09:32:30.563Z,12.40
2018-04-07T09:35:00.990Z,10.10
2018-04-07T09:37:29.545Z,10.00
2018-04-07T09:39:58.337Z,11.80
2018-04-07T09:42:27.083Z,11.07
2018-04-07T09:44:55.736Z,9.63
2018-04-07T09:47:24.499Z,9.70
2018-04-07T09:49:53.225Z,12.03
2018-04-07T09:52:21.847Z,11.83
2018-04-07T09:54:50.528Z,12.50
2018-04-07T09:57:19.288Z,11.47
2018-04-07T09:59:48.013Z,14.70
2018-04-07T10:02:20.523Z,10.27
2018-04-07T10:04:49.168Z,9.60
2018-04-07T10:07:17.703Z,9.80
2018-04-07T10:09:46.409Z,11.30
2018-04-07T10:12:15.034Z,7.47
2018-04-07T10:14:43.742Z,11.10
2018-04-07T10:17:12.569Z,9.13
2018-04-07T10:19:41.296Z,11.43
2018-04-07T10:22:09.971Z,12.70
2018-04-07T10:24:38.610Z,8.13
2018-04-07T10:27:07.273Z,10.13
2018-04-07T10:29:35.946Z,11.50
2018-04-07T10:32:04.705Z,8.17
2018-04-07T10:34:33.428Z,10.00
2018-04-07T10:37:02.150Z,14.30
2018-04-07T10:39:30.871Z,8.83
2018-04-07T10:41:59.497Z,12.73
2018-04-07T10:44:28.217Z,14.17
2018-04-07T10:46:57.538Z,7.63
2018-04-07T10:49:26.260Z,11.20
2018-04-07T10:51:54.983Z,10.50
2018-04-07T10:54:23.705Z,8.40
2018-04-07T10:56:52.331Z,9.60
2018-04-07T10:59:21.047Z,11.23
2018-04-07T11:01:49.772Z,8.13
2018-04-07T11:04:18.351Z,14.20
2018-04-07T11:06:47.012Z,10.53
2018-04-07T11:09:15.635Z,10.30
2018-04-07T11:11:44.357Z,14.13
2018-04-07T11:14:13.178Z,15.03
2018-04-07T11:16:41.732Z,13.83
2018-04-07T11:19:10.426Z,7.00
2018-04-07T11:21:38.998Z,8.03
2018-04-07T11:24:07.578Z,10.17
2018-04-07T11:26:36.387Z,12.70
2018-04-07T11:29:05.211Z,14.67
2018-04-07T11:31:33.930Z,9.77
2018-04-07T11:34:02.652Z,7.83
2018-04-07T11:36:31.382Z,8.57
2018-04-07T11:39:00.104Z,9.57
2018-04-07T11:41:28.817Z,7.90
2018-04-07T11:43:57.544Z,8.93
2018-04-07T11:46:26.136Z,9.93
2018-04-07T11:48:55.384Z,8.53
2018-04-07T11:51:24.177Z,9.57
2018-04-07T11:53:52.802Z,7.10
2018-04-07T11:56:21.554Z,7.20
2018-04-07T11:58:50.254Z,7.73
2018-04-07T12:01:18.871Z,6.43
2018-04-07T12:03:47.615Z,22.67
2018-04-07T12:06:16.441Z,7.83
2018-04-07T12:08:45.158Z,10.90
2018-04-07T12:11:13.882Z,8.47
2018-04-07T12:13:42.518Z,8.00
2018-04-07T12:16:11.611Z,7.47
2018-04-07T12:18:40.347Z,9.87
2018-04-07T12:21:08.988Z,11.03
2018-04-07T12:23:38.392Z,11.20
2018-04-07T12:26:07.037Z,10.17
2018-04-07T12:28:35.639Z,8.77
2018-04-07T12:31:04.325Z,8.63
2018-04-07T12:33:32.980Z,9.50
2018-04-07T12:36:01.901Z,10.57
2018-04-07T12:38:30.535Z,11.77
2018-04-07T12:40:59.446Z,10.07
2018-04-07T12:43:28.086Z,10.17
2018-04-07T12:45:56.788Z,9.73
2018-04-07T12:48:25.410Z,12.00
2018-04-07T12:50:54.133Z,9.17
2018-04-07T12:53:23.958Z,11.00
2018-04-07T12:55:52.585Z,10.73
2018-04-07T12:58:22.687Z,9.60
2018-04-07T13:00:51.428Z,10.13
2018-04-07T13:03:20.151Z,10.17
2018-04-07T13:05:48.872Z,11.83
2018-04-07T13:08:17.593Z,11.60
2018-04-07T13:10:46.214Z,10.17
2018-04-07T13:13:14.942Z,12.40
2018-04-07T13:15:43.574Z,11.17
2018-04-07T13:18:12.130Z,12.33
2018-04-07T13:20:40.802Z,11.30
2018-04-07T13:23:09.433Z,12.10
2018-04-07T13:25:38.054Z,15.20
2018-04-07T13:28:06.766Z,10.13
2018-04-07T13:30:35.505Z,14.33
2018-04-07T13:33:04.122Z,14.37
2018-04-07T13:35:32.735Z,9.03
2018-04-07T13:38:01.455Z,10.43
2018-04-07T13:40:30.074Z,8.97
2018-04-07T13:42:58.796Z,11.03
2018-04-07T13:45:27.416Z,10.27
2018-04-07T13:47:56.143Z,9.00
2018-04-07T13:50:24.865Z,12.23
2018-04-07T13:52:53.485Z,10.50
2018-04-07T13:55:22.204Z,11.23
2018-04-07T13:57:50.844Z,9.37
2018-04-07T14:00:19.649Z,13.83
2018-04-07T14:02:48.270Z,9.93
2018-04-07T14:05:16.993Z,10.07
2018-04-07T14:07:45.626Z,10.23
2018-04-07T14:10:14.859Z,15.70
2018-04-07T14:12:43.667Z,11.53
2018-04-07T14:15:12.286Z,12.83
2018-04-07T14:17:41.002Z,8.70
2018-04-07T14:20:09.727Z,8.73
2018-04-07T14:22:38.262Z,10.53
2018-04-07T14:25:07.074Z,11.33
2018-04-07T14:27:35.700Z,13.53
2018-04-07T14:30:04.511Z,8.50
2018-04-07T14:32:33.180Z,10.90
2018-04-07T14:35:01.855Z,7.63
2018-04-07T14:37:30.577Z,7.13
2018-04-07T14:40:00.595Z,10.60
2018-04-07T14:42:29.324Z,9.67
2018-04-07T14:44:59.254Z,9.30
2018-04-07T14:47:27.884Z,8.23
2018-04-07T14:49:56.773Z,7.60
2018-04-07T14:52:25.535Z,7.53
2018-04-07T14:54:54.346Z,7.13
2018-04-07T14:57:23.147Z,7.37
2018-04-07T14:59:51.885Z,6.87
2018-04-07T15:02:20.807Z,7.77
2018-04-07T15:04:49.529Z,11.43
2018-04-07T15:07:18.291Z,7.77
2018-04-07T15:09:47.058Z,7.67
2018-04-07T15:12:16.095Z,11.97
2018-04-07T15:14:44.826Z,11.20
2018-04-07T15:17:13.668Z,7.20
2018-04-07T15:19:42.364Z,10.27
2018-04-07T15:22:11.286Z,8.67
2018-04-07T15:24:40.004Z,9.23
2018-04-07T15:27:08.939Z,7.17
2018-04-07T15:29:37.548Z,7.47
2018-04-07T15:32:06.336Z,7.63
2018-04-07T15:34:35.201Z,11.07
2018-04-07T15:37:04.114Z,7.87
2018-04-07T15:39:32.738Z,10.13
2018-04-07T15:42:01.463Z,9.53
2018-04-07T15:44:30.095Z,8.57
2018-04-07T15:46:59.010Z,9.70
2018-04-07T15:49:27.625Z,8.03
2018-04-07T15:51:56.451Z,9.60
2018-04-07T15:54:25.070Z,8.57
2018-04-07T15:56:53.688Z,9.50
2018-04-07T15:59:22.516Z,9.50
2018-04-07T16:01:51.235Z,8.63
2018-04-07T16:04:19.955Z,9.67
2018-04-07T16:06:48.847Z,9.50
2018-04-07T16:09:17.616Z,8.27
2018-04-07T16:11:46.637Z,11.00
2018-04-07T16:14:15.322Z,11.07
2018-04-07T16:16:44.165Z,8.87
2018-04-07T16:19:13.607Z,9.90
2018-04-07T16:21:42.358Z,8.77
2018-04-07T16:24:11.135Z,13.80
2018-04-07T16:26:39.774Z,11.27
2018-04-07T16:29:08.491Z,12.80
2018-04-07T16:31:37.303Z,10.83
2018-04-07T16:34:06.030Z,11.10
2018-04-07T16:36:34.701Z,14.87
2018-04-07T16:39:03.565Z,14.57
2018-04-07T16:41:32.389Z,18.37
2018-04-07T16:44:01.310Z,13.20
2018-04-07T16:46:30.232Z,10.80
2018-04-07T16:48:59.543Z,14.43
2018-04-07T16:51:28.288Z,16.07
2018-04-07T16:53:57.001Z,13.20
2018-04-07T16:56:25.830Z,12.73
2018-04-07T16:58:54.501Z,13.90
2018-04-07T17:01:23.278Z,11.37
2018-04-07T17:03:51.888Z,12.27
2018-04-07T17:06:20.776Z,12.17
2018-04-07T17:08:49.542Z,14.27
2018-04-07T17:11:18.455Z,12.87
2018-04-07T17:13:47.193Z,16.37
2018-04-07T17:16:16.012Z,12.90
2018-04-07T17:18:44.924Z,15.13
2018-04-07T17:21:13.627Z,14.13
2018-04-07T17:23:42.378Z,11.37
2018-04-07T17:26:11.900Z,13.03
2018-04-07T17:28:40.768Z,16.43
2018-04-07T17:31:09.635Z,14.00
2018-04-07T17:33:38.461Z,13.40
2018-04-07T17:36:07.045Z,13.00
2018-04-07T17:38:35.808Z,13.40
2018-04-07T17:41:04.523Z,12.33
2018-04-07T17:43:33.344Z,18.73
2018-04-07T17:46:02.170Z,13.53
2018-04-07T17:48:31.090Z,15.23
2018-04-07T17:50:59.814Z,13.60
2018-04-07T17:53:28.736Z,12.63
2018-04-07T17:55:57.614Z,13.67
2018-04-07T17:58:26.289Z,14.77
2018-04-07T18:00:55.122Z,14.90
2018-04-07T18:03:23.925Z,13.40
2018-04-07T18:05:52.745Z,13.67
2018-04-07T18:08:21.593Z,12.33
2018-04-07T18:10:50.589Z,12.63
2018-04-07T18:13:19.441Z,17.47
2018-04-07T18:15:48.135Z,15.90
2018-04-07T18:18:17.058Z,15.67
2018-04-07T18:20:45.882Z,15.00
2018-04-07T18:23:14.602Z,16.50
2018-04-07T18:25:43.492Z,12.63
2018-04-07T18:28:12.448Z,15.23
2018-04-07T18:30:42.082Z,16.70
2018-04-07T18:33:10.994Z,16.00
2018-04-07T18:35:39.718Z,15.17
2018-04-07T18:38:08.638Z,19.00
2018-04-07T18:40:37.475Z,15.23
2018-04-07T18:43:06.195Z,19.30
2018-04-07T18:45:35.706Z,14.87
2018-04-07T18:48:04.592Z,17.27
2018-04-07T18:50:33.264Z,15.60
2018-04-07T18:53:01.973Z,16.67
2018-04-07T18:55:30.794Z,16.23
2018-04-07T18:57:59.521Z,15.53
2018-04-07T19:00:28.338Z,16.57
2018-04-07T19:02:57.161Z,15.53
2018-04-07T19:05:25.911Z,16.20
2018-04-07T19:07:54.633Z,18.80
2018-04-07T19:10:23.333Z,16.77
2018-04-07T19:12:52.060Z,17.60
2018-04-07T19:15:20.978Z,21.33
2018-04-07T19:17:49.868Z,16.77
2018-04-07T19:20:18.716Z,21.10
2018-04-07T19:22:47.479Z,17.87
2018-04-07T19:25:16.158Z,19.37
2018-04-07T19:27:44.866Z,21.00
2018-04-07T19:30:13.679Z,18.97
2018-04-07T19:32:42.500Z,19.10
2018-04-07T19:35:11.155Z,21.83
2018-04-07T19:37:39.988Z,23.10
2018-04-07T19:40:08.815Z,21.47
2018-04-07T19:42:37.614Z,22.33
2018-04-07T19:45:06.507Z,25.90
2018-04-07T19:47:35.218Z,19.33
2018-04-07T19:50:04.106Z,21.27
2018-04-07T19:52:32.904Z,22.20
2018-04-07T19:55:01.579Z,22.70
2018-04-07T19:57:30.289Z,25.93
2018-04-07T19:59:59.571Z,25.30
2018-04-07T20:02:28.294Z,23.77
2018-04-07T20:04:56.925Z,27.43
2018-04-07T20:07:25.707Z,22.60
2018-04-07T20:09:54.302Z,20.27
2018-04-07T20:12:22.980Z,22.33
2018-04-07T20:14:51.901Z,23.80
2018-04-07T20:17:20.624Z,23.57
2018-04-07T20:19:49.523Z,27.93
2018-04-07T20:22:18.267Z,31.97
2018-04-07T20:24:47.191Z,24.10
2018-04-07T20:27:15.814Z,22.10
2018-04-07T20:29:44.710Z,25.50
2018-04-07T20:32:13.569Z,31.77
2018-04-07T20:34:42.381Z,24.63
2018-04-07T20:37:11.038Z,23.97
2018-04-07T20:39:39.823Z,22.57
2018-04-07T20:42:20.610Z,21.23
2018-04-07T20:44:49.421Z,24.13
2018-04-07T20:47:18.182Z,22.23
2018-04-07T20:49:47.016Z,23.67
2018-04-07T20:52:16.377Z,24.67
2018-04-07T20:54:45.241Z,25.03
2018-04-07T20:57:14.019Z,25.73
2018-04-07T20:59:42.950Z,26.90
2018-04-07T21:02:11.667Z,28.03
2018-04-07T21:04:40.466Z,32.33
2018-04-07T21:07:09.122Z,36.03
2018-04-07T21:09:37.846Z,39.47
2018-04-07T21:12:06.757Z,42.97
2018-04-07T21:14:35.475Z,41.00
2018-04-07T21:17:04.376Z,40.30
2018-04-07T21:19:33.018Z,43.57
2018-04-07T21:22:01.844Z,35.87
2018-04-07T21:24:31.278Z,43.67
2018-04-07T21:27:00.012Z,41.90
2018-04-07T21:29:30.310Z,36.40
2018-04-07T21:31:58.953Z,36.27
2018-04-07T21:34:27.779Z,33.17
2018-04-07T21:36:56.582Z,30.57
2018-04-07T21:39:25.447Z,39.00
2018-04-07T21:41:54.135Z,30.40
2018-04-07T21:44:23.047Z,31.80
2018-04-07T21:46:51.874Z,34.87
2018-04-07T21:49:20.793Z,45.53
2018-04-07T21:51:49.715Z,34.40
2018-04-07T21:54:18.437Z,38.50
2018-04-07T21:56:47.262Z,39.53
2018-04-07T21:59:15.880Z,39.37
2018-04-07T22:01:45.700Z,40.87
2018-04-07T22:04:14.429Z,37.90
2018-04-07T22:06:43.215Z,41.00
2018-04-07T22:09:12.176Z,41.97
2018-04-07T22:11:40.998Z,46.00
2018-04-07T22:14:09.816Z,39.07
2018-04-07T22:16:38.641Z,52.90
2018-04-07T22:19:07.330Z,50.00
2018-04-07T22:21:36.085Z,56.07
2018-04-07T22:24:04.703Z,54.53
2018-04-07T22:26:33.634Z,62.47
2018-04-07T22:29:02.651Z,53.40
2018-04-07T22:31:31.330Z,49.43
2018-04-07T22:34:00.296Z,44.17
2018-04-07T22:36:29.040Z,44.17
2018-04-07T22:38:58.140Z,46.43
2018-04-07T22:41:26.983Z,43.27
2018-04-07T22:43:55.784Z,54.10
2018-04-07T22:46:24.509Z,46.60
2018-04-07T22:48:53.998Z,49.73
2018-04-07T22:51:22.758Z,51.47
2018-04-07T22:53:51.778Z,47.17
2018-04-07T22:56:20.497Z,50.40
2018-04-07T22:58:49.139Z,52.10
2018-04-07T23:01:17.844Z,52.77
2018-04-07T23:03:46.566Z,51.63
2018-04-07T23:06:15.488Z,47.70
2018-04-07T23:08:44.111Z,44.30
2018-04-07T23:11:12.928Z,43.50
2018-04-07T23:13:41.666Z,42.50
2018-04-07T23:16:11.457Z,40.80
2018-04-07T23:18:40.213Z,44.33
2018-04-07T23:21:10.648Z,48.03
2018-04-07T23:23:39.348Z,50.03
2018-04-07T23:26:08.179Z,53.80
2018-04-07T23:28:36.991Z,54.77
2018-04-07T23:31:05.715Z,57.90
2018-04-07T23:33:34.450Z,50.80
2018-04-07T23:36:03.140Z,53.77
2018-04-07T23:38:31.784Z,46.10
2018-04-07T23:41:00.602Z,53.20
2018-04-07T23:43:29.529Z,49.37
2018-04-07T23:45:58.351Z,54.77
2018-04-07T23:48:27.069Z,54.87
2018-04-07T23:50:55.999Z,58.90
2018-04-07T23:53:24.625Z,51.10
2018-04-07T23:55:53.498Z,51.90
2018-04-07T23:58:22.257Z,50.27
